RJNF(METAR)
08/22 16:00
RJNF 220700Z 24004KT 9999 FEW030 SCT040 BKNXXX 31/24 Q1012 RMK
A2989 CB SW=
戻る
トップページへ戻る
IMOC Co,.Ltd.